Time;durP1;ratioP1;P1;durP2;ratioP2;P2;SDS_P1;SDS_P2;PMS_P1;PMS_P2;Temp;Humidity;BMP_temperature;BMP_pressure;BME280_temperature;BME280_humidity;BME280_pressure;Samples;Min_cycle;Max_cycle;Signal;HPM_P1;HPM_P2
2023/03/19 00:01:26;;;;;;;1.13;1.03;;;18.50;44.20;;;;;;4990174;28;20220;-70
2023/03/19 00:03:51;;;;;;;1.20;1.10;;;18.50;44.20;;;;;;4983957;28;20239;-71
2023/03/19 00:06:18;;;;;;;1.20;1.10;;;18.50;44.30;;;;;;4994198;28;20529;-71
2023/03/19 00:08:43;;;;;;;1.40;1.30;;;18.50;44.30;;;;;;4994713;28;20783;-71
2023/03/19 00:11:10;;;;;;;1.20;1.10;;;18.50;44.30;;;;;;4998339;28;20415;-71
2023/03/19 00:13:35;;;;;;;1.10;1.00;;;18.50;44.30;;;;;;4987514;28;20216;-70
2023/03/19 00:16:01;;;;;;;1.10;1.00;;;18.50;44.30;;;;;;4991587;28;20814;-71
2023/03/19 00:18:27;;;;;;;1.30;1.20;;;18.50;44.30;;;;;;4995072;28;20552;-70
2023/03/19 00:20:52;;;;;;;4.53;1.63;;;18.50;44.30;;;;;;4997109;28;20215;-71
2023/03/19 00:23:18;;;;;;;1.67;1.20;;;18.50;44.30;;;;;;4994201;28;20459;-70
2023/03/19 00:25:43;;;;;;;0.90;0.90;;;18.50;44.30;;;;;;4998463;28;20226;-71
2023/03/19 00:28:09;;;;;;;1.10;1.00;;;18.50;44.30;;;;;;4995747;28;20255;-70
2023/03/19 00:30:35;;;;;;;1.10;1.00;;;18.50;45.10;;;;;;4998028;28;20224;-71
2023/03/19 00:33:01;;;;;;;1.43;1.33;;;18.50;44.30;;;;;;4997834;28;20292;-70
2023/03/19 00:35:27;;;;;;;1.10;1.00;;;18.50;44.30;;;;;;5009154;28;20428;-71
2023/03/19 00:37:54;;;;;;;1.10;1.00;;;18.50;44.30;;;;;;4989434;28;20431;-71
2023/03/19 00:40:19;;;;;;;1.30;1.20;;;18.50;44.30;;;;;;4997182;28;21601;-71
2023/03/19 00:42:45;;;;;;;1.20;1.00;;;18.50;44.30;;;;;;5000375;28;21029;-71
2023/03/19 00:45:10;;;;;;;1.30;1.20;;;18.50;44.30;;;;;;4988567;28;20231;-71
2023/03/19 00:47:36;;;;;;;1.20;1.10;;;18.50;44.30;;;;;;4994569;28;20258;-71
2023/03/19 00:50:03;;;;;;;1.23;1.13;;;18.50;44.40;;;;;;4993356;28;20223;-71
2023/03/19 00:52:29;;;;;;;1.10;1.00;;;18.50;44.30;;;;;;4998065;28;20227;-71
2023/03/19 00:54:55;;;;;;;1.23;1.10;;;18.50;44.40;;;;;;4994836;28;21373;-71
2023/03/19 00:57:21;;;;;;;1.40;1.30;;;18.50;44.30;;;;;;4994311;28;20336;-71
2023/03/19 00:59:46;;;;;;;0.80;0.80;;;18.50;44.40;;;;;;4996073;28;20235;-71
2023/03/19 01:02:12;;;;;;;0.90;0.90;;;18.50;44.40;;;;;;4995924;28;20455;-71
2023/03/19 01:04:37;;;;;;;1.10;1.00;;;18.50;44.40;;;;;;4995165;28;20651;-71
2023/03/19 01:07:03;;;;;;;1.20;1.10;;;18.50;44.40;;;;;;4995351;28;20259;-71
2023/03/19 01:09:29;;;;;;;1.00;0.90;;;18.50;44.40;;;;;;4999036;28;20310;-71
2023/03/19 01:11:54;;;;;;;1.20;1.10;;;18.50;44.40;;;;;;4993202;28;20262;-70
2023/03/19 01:14:20;;;;;;;0.90;0.90;;;18.50;44.40;;;;;;4990790;28;20223;-70
2023/03/19 01:16:45;;;;;;;1.60;1.20;;;18.50;44.40;;;;;;4994007;28;20229;-70
2023/03/19 01:19:13;;;;;;;1.00;0.93;;;18.50;44.40;;;;;;4995059;28;20228;-70
2023/03/19 01:21:38;;;;;;;1.20;1.10;;;18.50;44.40;;;;;;4992429;28;20573;-71
2023/03/19 01:24:04;;;;;;;3.03;1.00;;;18.50;44.40;;;;;;4996254;28;20431;-71
2023/03/19 01:26:30;;;;;;;1.20;1.10;;;18.50;44.40;;;;;;4996128;28;20224;-70
2023/03/19 01:28:56;;;;;;;1.10;1.00;;;18.50;45.20;;;;;;4985285;28;20256;-71
2023/03/19 01:31:22;;;;;;;1.20;1.10;;;18.50;44.40;;;;;;4987217;28;20224;-70
2023/03/19 01:33:48;;;;;;;0.90;0.90;;;18.50;44.50;;;;;;4991272;28;20494;-70
2023/03/19 01:36:13;;;;;;;1.10;1.00;;;18.50;44.40;;;;;;4993253;28;20224;-70
2023/03/19 01:38:39;;;;;;;1.50;1.10;;;18.50;44.40;;;;;;4998098;28;20670;-70
2023/03/19 01:41:05;;;;;;;1.87;1.77;;;18.50;44.50;;;;;;4988235;28;20299;-70
2023/03/19 01:43:31;;;;;;;1.30;1.20;;;18.50;44.50;;;;;;4986370;28;20722;-70
2023/03/19 01:46:12;;;;;;;1.10;1.00;;;18.50;44.40;;;;;;4995922;28;20251;-70
2023/03/19 01:48:46;;;;;;;1.27;1.17;;;18.50;44.40;;;;;;4992453;28;20439;-70
2023/03/19 01:51:15;;;;;;;1.07;1.00;;;18.50;44.40;;;;;;4992444;28;20434;-70
2023/03/19 01:53:46;;;;;;;1.10;1.00;;;18.50;44.40;;;;;;4996658;28;21261;-70
2023/03/19 01:56:17;;;;;;;1.20;1.10;;;18.50;44.50;;;;;;4995479;28;20435;-70
2023/03/19 01:58:45;;;;;;;0.87;0.87;;;18.40;44.30;;;;;;4990774;28;20452;-70
2023/03/19 02:01:12;;;;;;;1.00;1.00;;;18.40;44.40;;;;;;4989898;28;20459;-70
2023/03/19 02:03:39;;;;;;;1.10;1.00;;;18.50;44.50;;;;;;4995697;28;20442;-70
2023/03/19 02:06:06;;;;;;;0.93;0.93;;;18.50;44.50;;;;;;4986571;28;20567;-70
2023/03/19 02:08:33;;;;;;;1.03;0.93;;;18.50;44.50;;;;;;4993730;28;20452;-70
2023/03/19 02:11:00;;;;;;;1.10;1.00;;;18.40;44.50;;;;;;4994768;28;20515;-70
2023/03/19 02:13:26;;;;;;;1.00;1.00;;;18.50;44.50;;;;;;4997596;28;20485;-70
2023/03/19 02:15:53;;;;;;;1.00;0.90;;;18.50;44.50;;;;;;4989490;28;20553;-70
2023/03/19 02:18:19;;;;;;;1.50;1.00;;;18.50;44.50;;;;;;4989166;28;20235;-70
2023/03/19 02:20:50;;;;;;;1.10;1.00;;;18.40;44.40;;;;;;4997386;28;20826;-69
2023/03/19 02:23:53;;;;;;;1.07;0.97;;;18.50;44.50;;;;;;4998130;28;20444;-70
2023/03/19 02:26:21;;;;;;;0.93;0.90;;;18.50;44.50;;;;;;4997714;28;20476;-70
2023/03/19 02:28:48;;;;;;;0.90;0.90;;;18.40;44.40;;;;;;5000116;28;20455;-70
2023/03/19 02:31:15;;;;;;;1.10;1.00;;;18.40;45.20;;;;;;4997782;28;20435;-70
2023/03/19 02:33:41;;;;;;;1.20;1.10;;;18.40;44.50;;;;;;4986403;28;20465;-70
2023/03/19 02:36:16;;;;;;;1.10;1.00;;;18.50;44.50;;;;;;4997005;28;20786;-70
2023/03/19 02:38:44;;;;;;;1.17;1.07;;;18.40;44.50;;;;;;4990430;28;20643;-70
2023/03/19 02:41:10;;;;;;;1.00;0.90;;;18.40;44.40;;;;;;4999292;28;20816;-69
2023/03/19 02:43:38;;;;;;;1.13;1.03;;;18.40;44.40;;;;;;4998026;28;20435;-70
2023/03/19 02:46:07;;;;;;;1.00;1.00;;;18.40;44.40;;;;;;4999901;28;20618;-70
2023/03/19 02:48:33;;;;;;;1.10;1.00;;;18.40;44.40;;;;;;4998973;28;20501;-70
2023/03/19 02:50:59;;;;;;;1.00;1.00;;;18.40;44.50;;;;;;5000068;28;20544;-69
2023/03/19 02:53:25;;;;;;;1.10;1.00;;;18.50;44.50;;;;;;4978954;28;20506;-70
2023/03/19 02:55:50;;;;;;;1.00;0.97;;;18.40;44.40;;;;;;4996565;28;20220;-70
2023/03/19 02:58:16;;;;;;;1.03;0.93;;;18.40;44.50;;;;;;4989868;28;20263;-70
2023/03/19 03:00:42;;;;;;;1.10;1.00;;;18.40;44.40;;;;;;4985974;28;20667;-70
2023/03/19 03:03:08;;;;;;;1.03;0.97;;;18.40;44.40;;;;;;4985595;28;20440;-70
2023/03/19 03:05:34;;;;;;;1.10;1.00;;;18.40;44.50;;;;;;4979758;28;20224;-70
2023/03/19 03:08:00;;;;;;;1.03;0.97;;;18.40;44.40;;;;;;4992791;28;20240;-69
2023/03/19 03:10:25;;;;;;;1.10;1.03;;;18.40;44.40;;;;;;4978950;28;20457;-70
2023/03/19 03:12:51;;;;;;;1.20;1.10;;;18.50;44.50;;;;;;4995409;28;20227;-70
2023/03/19 03:15:17;;;;;;;0.97;0.97;;;18.40;44.40;;;;;;4996700;28;20230;-70
2023/03/19 03:17:44;;;;;;;1.00;0.90;;;18.40;44.50;;;;;;5000229;28;20230;-70
2023/03/19 03:20:13;;;;;;;1.00;1.00;;;18.40;44.50;;;;;;4994353;28;20863;-70
2023/03/19 03:22:39;;;;;;;1.13;1.03;;;18.40;44.50;;;;;;4982183;28;20470;-70
2023/03/19 03:25:05;;;;;;;1.10;1.00;;;18.40;44.50;;;;;;4986169;28;20797;-70
2023/03/19 03:27:31;;;;;;;1.30;1.20;;;18.40;44.50;;;;;;4994578;28;20639;-70
2023/03/19 03:29:57;;;;;;;1.00;0.90;;;18.40;44.50;;;;;;4995037;28;20484;-70
2023/03/19 03:32:23;;;;;;;1.10;1.00;;;18.40;44.40;;;;;;4995030;28;20596;-70
2023/03/19 03:34:49;;;;;;;1.20;1.10;;;18.40;44.50;;;;;;4997056;28;20222;-70
2023/03/19 03:37:16;;;;;;;1.10;1.00;;;18.40;44.50;;;;;;4991490;28;20476;-70
2023/03/19 03:39:42;;;;;;;0.90;0.90;;;18.40;44.50;;;;;;4993373;28;20470;-70
2023/03/19 03:42:07;;;;;;;1.03;0.93;;;18.40;44.50;;;;;;4996990;28;20562;-70
2023/03/19 03:44:33;;;;;;;1.23;1.13;;;18.40;44.50;;;;;;4995612;28;20770;-70
2023/03/19 03:46:58;;;;;;;1.10;1.00;;;18.40;44.50;;;;;;4992821;28;20298;-70
2023/03/19 03:49:24;;;;;;;1.10;1.00;;;18.40;44.50;;;;;;4982927;28;20229;-70
2023/03/19 03:51:50;;;;;;;1.20;1.10;;;18.40;44.50;;;;;;4990457;28;20314;-70
2023/03/19 03:54:15;;;;;;;1.07;1.00;;;18.40;44.50;;;;;;4991982;28;20222;-71
2023/03/19 03:56:41;;;;;;;1.10;1.00;;;18.40;44.50;;;;;;4995944;28;20255;-71
2023/03/19 03:59:07;;;;;;;1.07;0.97;;;18.40;44.50;;;;;;4993769;28;20231;-71
2023/03/19 04:01:32;;;;;;;1.43;1.33;;;18.40;45.30;;;;;;4975556;28;20270;-71
2023/03/19 04:03:58;;;;;;;1.10;1.00;;;18.40;44.50;;;;;;4990146;28;20241;-71
2023/03/19 04:06:26;;;;;;;1.10;1.00;;;18.40;44.50;;;;;;4998516;28;20354;-70
2023/03/19 04:08:51;;;;;;;1.20;1.10;;;18.40;44.50;;;;;;4995599;28;20321;-71
2023/03/19 04:11:17;;;;;;;1.10;1.00;;;18.40;44.50;;;;;;4994728;28;20602;-71
2023/03/19 04:13:42;;;;;;;1.30;1.20;;;18.40;44.50;;;;;;4995980;28;20323;-70
2023/03/19 04:16:09;;;;;;;1.00;0.90;;;18.40;44.50;;;;;;4988212;28;20315;-70
2023/03/19 04:18:35;;;;;;;1.10;1.00;;;18.40;44.50;;;;;;4993437;28;20231;-70
2023/03/19 04:21:02;;;;;;;1.00;0.90;;;18.40;44.60;;;;;;4999957;28;20843;-70
2023/03/19 04:23:28;;;;;;;1.20;1.10;;;18.40;44.50;;;;;;4991457;28;20314;-70
2023/03/19 04:25:58;;;;;;;1.20;1.10;;;18.40;44.50;;;;;;4993783;28;20499;-70
2023/03/19 04:28:24;;;;;;;1.10;1.00;;;18.40;44.50;;;;;;4986745;28;20385;-71
2023/03/19 04:30:49;;;;;;;0.90;0.90;;;18.40;44.50;;;;;;4991469;28;20847;-70
2023/03/19 04:33:16;;;;;;;1.20;1.10;;;18.40;44.50;;;;;;4982732;28;20841;-71
2023/03/19 04:35:41;;;;;;;1.10;1.00;;;18.40;44.50;;;;;;4992654;28;20219;-70
2023/03/19 04:38:07;;;;;;;1.10;1.00;;;18.40;44.50;;;;;;4996783;28;20598;-70
2023/03/19 04:40:33;;;;;;;1.20;1.10;;;18.40;44.50;;;;;;4988161;28;20224;-70
2023/03/19 04:42:59;;;;;;;1.30;1.20;;;18.40;44.60;;;;;;4996593;28;20461;-70
2023/03/19 04:45:25;;;;;;;1.20;1.10;;;18.40;44.50;;;;;;4986805;28;20918;-70
2023/03/19 04:47:50;;;;;;;0.90;0.90;;;18.40;44.50;;;;;;4994148;28;20354;-71
2023/03/19 04:50:16;;;;;;;3.60;1.13;;;18.40;44.50;;;;;;4996599;28;20238;-70
2023/03/19 04:52:42;;;;;;;1.47;1.27;;;18.40;44.50;;;;;;4985551;28;20224;-70
2023/03/19 04:55:08;;;;;;;1.03;1.00;;;18.40;44.50;;;;;;4984262;28;20448;-70
2023/03/19 04:57:34;;;;;;;1.00;1.00;;;18.50;44.60;;;;;;4997156;28;20689;-70
2023/03/19 05:00:00;;;;;;;0.93;0.90;;;18.50;44.50;;;;;;4996552;28;20230;-70
2023/03/19 05:02:26;;;;;;;0.83;0.83;;;18.40;44.50;;;;;;4984204;28;20223;-71
2023/03/19 05:04:52;;;;;;;1.10;1.00;;;18.50;44.60;;;;;;4988101;28;20215;-70
2023/03/19 05:07:17;;;;;;;1.60;1.07;;;18.50;44.50;;;;;;4995849;28;20478;-70
2023/03/19 05:09:45;;;;;;;1.10;1.00;;;18.50;44.60;;;;;;4996576;28;20488;-70
2023/03/19 05:12:11;;;;;;;1.10;1.00;;;18.40;44.50;;;;;;4996757;28;20235;-70
2023/03/19 05:14:37;;;;;;;1.10;1.00;;;18.50;44.60;;;;;;4997886;28;20432;-70
2023/03/19 05:17:03;;;;;;;1.20;1.10;;;18.50;44.60;;;;;;4997277;28;20836;-70
2023/03/19 05:19:28;;;;;;;1.23;1.13;;;18.50;44.60;;;;;;4997269;28;20270;-70
2023/03/19 05:21:56;;;;;;;0.90;0.90;;;18.50;44.60;;;;;;4981828;28;20228;-71
2023/03/19 05:24:22;;;;;;;1.13;1.00;;;18.50;45.30;;;;;;4993660;28;20219;-76
2023/03/19 05:26:47;;;;;;;1.00;1.00;;;18.50;44.60;;;;;;4991596;28;20466;-70
2023/03/19 05:29:13;;;;;;;0.90;0.90;;;18.50;44.60;;;;;;4991096;28;20477;-72
2023/03/19 05:31:39;;;;;;;1.10;1.00;;;18.50;44.50;;;;;;4983324;28;20224;-70
2023/03/19 05:34:05;;;;;;;1.07;0.97;;;18.50;44.50;;;;;;4982684;28;20224;-72
2023/03/19 05:36:31;;;;;;;1.10;1.00;;;18.50;44.50;;;;;;4983741;28;20434;-71
2023/03/19 05:38:56;;;;;;;1.13;1.03;;;18.50;44.40;;;;;;4994762;28;20227;-71
2023/03/19 05:41:22;;;;;;;1.43;0.97;;;18.50;44.40;;;;;;5001116;28;20218;-71
2023/03/19 05:43:47;;;;;;;1.00;0.90;;;18.50;44.50;;;;;;4999751;28;20417;-71
2023/03/19 05:46:13;;;;;;;0.83;0.80;;;18.50;44.60;;;;;;4993239;28;20703;-71
2023/03/19 05:48:38;;;;;;;1.20;1.10;;;18.50;44.50;;;;;;4988538;28;20247;-71
2023/03/19 05:51:04;;;;;;;0.97;0.87;;;18.50;44.50;;;;;;4995935;28;20231;-71
2023/03/19 05:53:30;;;;;;;1.00;0.90;;;18.50;44.50;;;;;;4991606;28;20223;-68
2023/03/19 05:55:55;;;;;;;1.00;1.00;;;18.50;44.50;;;;;;4990245;28;20289;-68
2023/03/19 05:58:21;;;;;;;1.10;1.00;;;18.50;44.50;;;;;;4985925;28;20829;-68
2023/03/19 06:00:50;;;;;;;0.90;0.90;;;18.50;44.40;;;;;;4994779;28;20230;-68
2023/03/19 06:03:16;;;;;;;1.10;1.00;;;18.50;44.50;;;;;;4993284;28;20220;-68
2023/03/19 06:05:41;;;;;;;1.10;1.00;;;18.50;44.50;;;;;;5000078;28;20453;-68
2023/03/19 06:08:07;;;;;;;1.07;1.00;;;18.50;44.40;;;;;;5000081;28;20242;-68
2023/03/19 06:10:36;;;;;;;1.43;1.00;;;18.50;44.40;;;;;;4992958;28;20258;-68
2023/03/19 06:13:01;;;;;;;0.90;0.90;;;18.50;44.40;;;;;;4986535;28;20235;-67
2023/03/19 06:15:27;;;;;;;1.10;1.00;;;18.50;44.40;;;;;;4996268;28;20439;-68
2023/03/19 06:17:52;;;;;;;0.90;0.90;;;18.50;44.40;;;;;;4997464;28;20216;-68
2023/03/19 06:20:18;;;;;;;1.03;0.97;;;18.50;44.40;;;;;;5004005;28;20322;-68
2023/03/19 06:22:44;;;;;;;1.10;1.00;;;18.50;45.20;;;;;;5002378;28;20216;-68
2023/03/19 06:25:10;;;;;;;0.90;0.90;;;18.50;44.50;;;;;;4996190;28;20624;-68
2023/03/19 06:27:35;;;;;;;0.93;0.83;;;18.50;44.50;;;;;;5001724;28;20235;-68
2023/03/19 06:30:01;;;;;;;1.10;1.00;;;18.50;44.40;;;;;;4997346;28;20457;-68
2023/03/19 06:32:26;;;;;;;1.10;1.00;;;18.50;44.50;;;;;;4990741;28;20581;-68
2023/03/19 06:34:53;;;;;;;1.07;0.97;;;18.50;44.50;;;;;;4999223;28;20234;-68
2023/03/19 06:37:19;;;;;;;3.60;0.90;;;18.50;44.40;;;;;;4998989;28;20227;-68
2023/03/19 06:39:45;;;;;;;1.27;0.90;;;18.50;44.40;;;;;;4996216;28;21179;-68
2023/03/19 06:42:10;;;;;;;1.07;0.97;;;18.50;44.50;;;;;;5000298;28;20227;-68
2023/03/19 06:44:36;;;;;;;0.83;0.83;;;18.50;44.50;;;;;;4995435;28;20223;-68
2023/03/19 06:47:02;;;;;;;1.00;0.90;;;18.50;44.50;;;;;;4996965;28;20472;-68
2023/03/19 06:49:27;;;;;;;0.83;0.80;;;18.50;44.60;;;;;;5000071;28;20227;-68
2023/03/19 06:51:53;;;;;;;1.10;1.00;;;18.50;44.50;;;;;;4993908;28;20310;-70
2023/03/19 06:54:18;;;;;;;0.90;0.90;;;18.50;44.50;;;;;;4988975;28;20224;-72
2023/03/19 06:56:45;;;;;;;1.10;1.00;;;18.50;44.50;;;;;;4988182;28;20254;-68
2023/03/19 06:59:11;;;;;;;1.00;0.90;;;18.50;44.50;;;;;;4990194;28;20282;-70
2023/03/19 07:01:40;;;;;;;1.00;0.90;;;18.50;44.50;;;;;;4991909;28;20464;-70
2023/03/19 07:04:06;;;;;;;0.90;0.80;;;18.50;44.50;;;;;;4989477;28;20520;-72
2023/03/19 07:06:33;;;;;;;0.80;0.80;;;18.50;44.50;;;;;;4997309;28;20447;-71
2023/03/19 07:08:59;;;;;;;0.97;0.93;;;18.50;44.40;;;;;;4995509;28;20259;-70
2023/03/19 07:11:25;;;;;;;1.10;1.00;;;18.60;44.50;;;;;;4989474;28;21565;-63
2023/03/19 07:13:51;;;;;;;1.10;0.90;;;18.60;44.40;;;;;;4989303;28;20573;-70
2023/03/19 07:16:16;;;;;;;5.13;0.93;;;18.60;44.40;;;;;;4983591;28;20219;-67
2023/03/19 07:18:42;;;;;;;1.03;1.00;;;18.60;44.40;;;;;;4994324;28;20223;-66
2023/03/19 07:21:07;;;;;;;1.10;1.00;;;18.60;44.30;;;;;;4989187;28;20219;-68
2023/03/19 07:23:33;;;;;;;1.10;1.00;;;18.60;44.40;;;;;;4996344;28;20338;-68
2023/03/19 07:25:58;;;;;;;1.00;0.90;;;18.60;44.30;;;;;;4993802;28;20231;-68
2023/03/19 07:28:24;;;;;;;1.40;0.97;;;18.60;44.40;;;;;;4978115;28;20255;-68
2023/03/19 07:30:52;;;;;;;0.80;0.80;;;18.60;44.30;;;;;;4997399;28;20231;-72
2023/03/19 07:33:20;;;;;;;3.03;1.00;;;18.60;44.30;;;;;;4981671;28;20226;-69
2023/03/19 07:35:45;;;;;;;1.30;1.20;;;18.60;44.30;;;;;;4994965;28;20490;-69
2023/03/19 07:38:11;;;;;;;1.10;1.00;;;18.60;44.30;;;;;;4994762;28;20515;-68
2023/03/19 07:40:36;;;;;;;1.00;0.90;;;18.60;44.50;;;;;;4982708;28;20298;-68
2023/03/19 07:43:03;;;;;;;1.20;0.97;;;18.60;44.30;;;;;;4988143;28;20246;-68
2023/03/19 07:45:28;;;;;;;1.10;1.00;;;18.60;44.30;;;;;;4994912;28;20280;-70
2023/03/19 07:47:54;;;;;;;1.30;1.20;;;18.60;44.30;;;;;;4988584;28;20466;-68
2023/03/19 07:50:20;;;;;;;1.10;1.00;;;18.60;44.30;;;;;;4980355;28;20230;-68
2023/03/19 07:52:46;;;;;;;1.00;0.90;;;18.60;44.30;;;;;;4979594;28;20219;-66
2023/03/19 07:55:12;;;;;;;1.13;1.00;;;18.60;44.40;;;;;;4981721;28;20227;-66
2023/03/19 07:57:38;;;;;;;1.40;0.90;;;18.60;44.50;;;;;;4986194;28;20474;-66
2023/03/19 08:00:04;;;;;;;0.87;0.83;;;18.50;44.40;;;;;;4984904;28;20303;-66
2023/03/19 08:02:30;;;;;;;1.07;0.97;;;18.60;44.50;;;;;;4983052;28;20224;-66
2023/03/19 08:04:55;;;;;;;1.10;1.00;;;18.60;44.50;;;;;;4984731;28;20486;-66
2023/03/19 08:07:21;;;;;;;1.20;0.90;;;18.60;44.50;;;;;;4989551;28;20392;-66
2023/03/19 08:09:47;;;;;;;1.07;0.97;;;18.60;44.60;;;;;;4994049;28;20257;-66
2023/03/19 08:12:13;;;;;;;0.80;0.80;;;18.60;44.50;;;;;;5013700;28;20234;-66
2023/03/19 08:14:38;;;;;;;1.03;0.93;;;18.60;44.60;;;;;;4988055;28;20271;-67
2023/03/19 08:17:04;;;;;;;1.00;1.00;;;18.50;44.50;;;;;;4984340;28;20439;-74
2023/03/19 08:19:30;;;;;;;0.80;0.80;;;18.60;44.60;;;;;;4991126;28;20219;-71
2023/03/19 08:21:56;;;;;;;1.63;0.90;;;18.60;44.60;;;;;;4986052;28;20219;-67
2023/03/19 08:24:22;;;;;;;0.90;0.80;;;18.50;44.40;;;;;;4988620;28;20438;-68
2023/03/19 08:26:47;;;;;;;1.10;1.00;;;18.60;44.50;;;;;;4984267;28;20231;-67
2023/03/19 08:29:13;;;;;;;1.10;1.00;;;18.60;44.60;;;;;;4986325;28;20300;-68
2023/03/19 08:31:38;;;;;;;1.20;0.80;;;18.60;44.50;;;;;;4995274;28;22284;-67
2023/03/19 08:34:04;;;;;;;1.00;0.90;;;18.60;44.60;;;;;;4992559;28;20215;-67
2023/03/19 08:36:31;;;;;;;0.87;0.87;;;18.60;44.50;;;;;;4995146;28;20583;-67
2023/03/19 08:38:57;;;;;;;1.30;1.10;;;18.60;44.50;;;;;;4990082;28;20478;-69
2023/03/19 08:41:23;;;;;;;0.70;0.70;;;18.60;44.50;;;;;;4992491;28;20990;-69
2023/03/19 08:43:49;;;;;;;4.37;1.17;;;18.60;44.50;;;;;;4975516;28;20470;-72
2023/03/19 08:46:15;;;;;;;1.00;0.90;;;18.60;44.60;;;;;;4992717;28;20440;-66
2023/03/19 08:48:41;;;;;;;1.23;1.00;;;18.60;44.50;;;;;;4989386;28;20437;-67
2023/03/19 08:51:08;;;;;;;1.40;0.90;;;18.60;45.20;;;;;;4987789;28;20472;-68
2023/03/19 08:53:34;;;;;;;1.00;0.90;;;18.60;44.60;;;;;;4984183;28;20229;-67
2023/03/19 08:56:02;;;;;;;1.00;1.00;;;18.60;44.60;;;;;;4994915;28;20439;-68
2023/03/19 08:58:28;;;;;;;0.93;0.87;;;18.60;44.60;;;;;;4994355;28;20219;-68
2023/03/19 09:01:02;;;;;;;1.03;0.90;;;18.60;44.60;;;;;;4981629;28;20450;-67
2023/03/19 09:03:27;;;;;;;3.27;1.10;;;18.60;44.50;;;;;;4997366;28;20436;-68
2023/03/19 09:05:58;;;;;;;1.07;0.90;;;18.60;44.60;;;;;;4982871;28;20503;-69
2023/03/19 09:08:23;;;;;;;1.10;1.00;;;18.60;44.50;;;;;;4990514;28;20242;-68
2023/03/19 09:10:49;;;;;;;0.90;0.80;;;18.60;44.50;;;;;;4997435;28;20800;-68
2023/03/19 09:13:14;;;;;;;1.10;1.00;;;18.60;44.50;;;;;;4996553;28;20243;-68
2023/03/19 09:15:40;;;;;;;1.00;0.90;;;18.60;44.50;;;;;;4985673;28;20311;-67
2023/03/19 09:18:05;;;;;;;1.10;1.00;;;18.60;44.50;;;;;;4996863;28;20241;-67
2023/03/19 09:20:31;;;;;;;0.80;0.80;;;18.60;44.60;;;;;;4987967;28;20234;-68
2023/03/19 09:22:56;;;;;;;0.80;0.80;;;18.60;44.50;;;;;;4983271;28;20699;-68
2023/03/19 09:25:22;;;;;;;0.93;0.90;;;18.60;44.50;;;;;;4990989;28;20227;-68
2023/03/19 09:27:47;;;;;;;0.80;0.80;;;18.60;44.60;;;;;;4983500;28;21047;-70
2023/03/19 09:30:14;;;;;;;1.00;0.80;;;18.60;44.50;;;;;;4990457;28;20226;-72
2023/03/19 09:32:39;;;;;;;0.90;0.90;;;18.60;44.60;;;;;;4989385;28;20234;-71
2023/03/19 09:35:05;;;;;;;1.07;0.97;;;18.60;44.60;;;;;;4987595;28;20472;-70
2023/03/19 09:37:31;;;;;;;1.50;0.93;;;18.60;44.60;;;;;;4990921;28;20230;-70
2023/03/19 09:39:57;;;;;;;0.90;0.90;;;18.60;44.70;;;;;;4990812;28;20453;-70
2023/03/19 09:42:43;;;;;;;1.00;0.90;;;18.60;44.60;;;;;;4997821;28;20802;-70
2023/03/19 09:45:13;;;;;;;0.80;0.80;;;18.60;44.60;;;;;;4993313;28;20296;-70
2023/03/19 09:47:40;;;;;;;0.93;0.83;;;18.60;44.60;;;;;;4984428;28;20471;-70
2023/03/19 09:50:15;;;;;;;0.93;0.90;;;18.60;44.70;;;;;;4993870;28;20439;-70
2023/03/19 09:52:48;;;;;;;1.00;0.87;;;18.60;44.60;;;;;;4987681;28;20438;-69
2023/03/19 09:55:23;;;;;;;0.80;0.80;;;18.60;44.70;;;;;;4985441;28;20503;-70
2023/03/19 09:57:49;;;;;;;1.00;0.90;;;18.60;44.70;;;;;;4987852;28;20437;-70
2023/03/19 10:00:22;;;;;;;0.90;0.90;;;18.60;44.70;;;;;;4985119;28;20438;-69
2023/03/19 10:03:11;;;;;;;2.50;0.97;;;18.60;44.70;;;;;;4986203;28;20445;-70
2023/03/19 10:05:57;;;;;;;1.33;1.00;;;18.60;44.70;;;;;;4992265;28;20444;-69
2023/03/19 10:08:46;;;;;;;0.80;0.80;;;18.50;44.60;;;;;;4994584;28;20455;-70
2023/03/19 10:11:31;;;;;;;0.80;0.80;;;18.60;44.80;;;;;;4991128;28;20982;-69
2023/03/19 10:14:16;;;;;;;0.90;0.90;;;18.60;44.80;;;;;;4988029;28;20504;-70
2023/03/19 10:16:47;;;;;;;0.97;0.80;;;18.50;44.70;;;;;;5025638;28;21024;-70
2023/03/19 10:19:20;;;;;;;0.80;0.80;;;18.50;44.70;;;;;;4990725;28;20447;-69
2023/03/19 10:21:55;;;;;;;1.00;0.80;;;18.50;44.70;;;;;;4998693;28;20435;-70
2023/03/19 10:24:43;;;;;;;0.90;0.70;;;18.50;44.70;;;;;;4996564;28;20498;-69
2023/03/19 10:27:16;;;;;;;1.00;0.90;;;18.60;44.90;;;;;;4997357;28;20432;-69
2023/03/19 10:29:42;;;;;;;1.03;0.90;;;18.50;44.70;;;;;;5001194;28;20431;-69
2023/03/19 10:32:28;;;;;;;1.90;0.80;;;18.50;44.70;;;;;;4996419;28;20419;-69
2023/03/19 10:34:58;;;;;;;1.00;0.80;;;18.50;44.70;;;;;;4987166;28;20814;-68
2023/03/19 10:37:26;;;;;;;2.07;0.90;;;18.50;44.70;;;;;;4987623;28;20962;-70
2023/03/19 10:39:56;;;;;;;1.00;0.83;;;18.50;44.70;;;;;;4994409;28;20432;-71
2023/03/19 10:42:43;;;;;;;0.83;0.80;;;18.60;44.80;;;;;;4991399;28;20987;-71
2023/03/19 10:45:18;;;;;;;1.30;1.20;;;18.60;44.70;;;;;;4981855;28;20448;-65
2023/03/19 10:47:43;;;;;;;0.80;0.80;;;18.60;44.70;;;;;;4977175;28;20566;-66
2023/03/19 10:50:16;;;;;;;0.87;0.87;;;18.60;44.70;;;;;;5002205;28;20477;-71
2023/03/19 10:52:42;;;;;;;0.80;0.80;;;18.60;44.70;;;;;;4984091;28;20294;-68
2023/03/19 10:55:14;;;;;;;1.07;0.97;;;18.60;44.60;;;;;;4976397;28;20424;-69
2023/03/19 10:57:42;;;;;;;1.10;0.90;;;18.60;44.70;;;;;;4992437;28;20553;-69
2023/03/19 11:00:34;;;;;;;0.83;0.70;;;18.60;44.60;;;;;;4980683;28;20421;-69
2023/03/19 11:03:03;;;;;;;1.90;1.00;;;18.60;44.60;;;;;;4982031;28;21092;-67
2023/03/19 11:05:32;;;;;;;0.70;0.70;;;18.60;44.70;;;;;;4982018;28;20440;-68
2023/03/19 11:08:01;;;;;;;0.80;0.80;;;18.60;44.70;;;;;;4995744;28;20459;-68
2023/03/19 11:10:30;;;;;;;1.53;0.80;;;18.60;44.70;;;;;;4989429;28;20446;-68
2023/03/19 11:12:59;;;;;;;0.70;0.70;;;18.60;44.70;;;;;;4992977;28;20450;-68
2023/03/19 11:15:35;;;;;;;0.80;0.80;;;18.60;44.70;;;;;;4997978;28;20435;-68
2023/03/19 11:18:27;;;;;;;1.10;1.00;;;18.60;44.80;;;;;;4991925;28;20442;-68
2023/03/19 11:20:55;;;;;;;0.70;0.70;;;18.60;44.70;;;;;;4995653;28;20995;-68
2023/03/19 11:23:21;;;;;;;0.90;0.80;;;18.60;44.80;;;;;;4997392;28;20446;-69
2023/03/19 11:25:51;;;;;;;0.90;0.80;;;18.60;44.80;;;;;;4997866;28;20435;-69
2023/03/19 11:28:20;;;;;;;1.63;0.83;;;18.60;44.80;;;;;;4991944;28;20449;-68
2023/03/19 11:31:13;;;;;;;0.70;0.70;;;18.60;44.80;;;;;;4992396;28;20456;-68
2023/03/19 11:33:57;;;;;;;1.10;1.00;;;18.60;44.80;;;;;;4977571;28;20462;-68
2023/03/19 11:36:47;;;;;;;1.00;0.90;;;18.60;44.80;;;;;;4991425;28;20826;-68
2023/03/19 11:39:20;;;;;;;0.90;0.70;;;18.60;44.80;;;;;;4990206;28;20586;-68
2023/03/19 11:42:25;;;;;;;0.80;0.80;;;18.60;44.90;;;;;;4992918;28;20522;-68
2023/03/19 11:45:07;;;;;;;1.30;1.00;;;18.60;44.90;;;;;;4978191;28;20504;-68
2023/03/19 11:47:54;;;;;;;1.30;0.83;;;18.60;44.90;;;;;;4995607;28;20451;-68
2023/03/19 11:50:34;;;;;;;0.70;0.60;;;18.60;44.90;;;;;;4992746;28;20498;-69
2023/03/19 11:53:13;;;;;;;1.23;1.13;;;18.60;44.90;;;;;;4979495;28;20456;-68
2023/03/19 11:56:02;;;;;;;0.90;0.80;;;18.60;44.90;;;;;;4984647;28;20453;-69
2023/03/19 11:59:09;;;;;;;0.80;0.80;;;18.60;44.80;;;;;;4979153;28;20478;-68
2023/03/19 12:01:56;;;;;;;0.90;0.90;;;18.60;44.90;;;;;;4990309;28;20497;-68
2023/03/19 12:05:00;;;;;;;0.80;0.77;;;18.60;44.90;;;;;;4986476;28;20829;-69
2023/03/19 12:07:25;;;;;;;0.67;0.60;;;18.60;44.90;;;;;;4983594;28;21193;-68
2023/03/19 12:10:10;;;;;;;0.70;0.70;;;18.60;44.90;;;;;;4980027;28;20436;-68
2023/03/19 12:12:45;;;;;;;0.97;0.80;;;18.60;44.90;;;;;;4995111;28;20385;-68
2023/03/19 12:15:34;;;;;;;1.20;0.70;;;18.60;44.90;;;;;;4990967;28;20460;-68
2023/03/19 12:18:37;;;;;;;1.87;0.90;;;18.60;44.90;;;;;;4991694;28;20443;-69
2023/03/19 12:21:29;;;;;;;1.10;0.80;;;18.60;44.90;;;;;;4993262;28;20835;-68
2023/03/19 12:24:22;;;;;;;0.70;0.60;;;18.60;44.90;;;;;;4986811;28;20516;-69
2023/03/19 12:26:54;;;;;;;0.90;0.90;;;18.60;44.90;;;;;;4993580;28;20439;-68
2023/03/19 12:29:28;;;;;;;0.90;0.83;;;18.60;45.00;;;;;;4994883;28;20477;-69
2023/03/19 12:32:04;;;;;;;1.17;0.87;;;18.60;44.90;;;;;;4992353;28;20453;-69
2023/03/19 12:34:37;;;;;;;0.70;0.70;;;18.60;45.00;;;;;;4982661;28;20476;-69
2023/03/19 12:37:36;;;;;;;0.97;0.80;;;18.60;44.90;;;;;;4991115;28;20472;-68
2023/03/19 12:40:12;;;;;;;0.70;0.67;;;18.60;44.90;;;;;;4992617;28;20503;-68
2023/03/19 12:42:39;;;;;;;1.20;1.10;;;18.60;44.90;;;;;;4981871;28;20451;-69
2023/03/19 12:45:37;;;;;;;0.87;0.83;;;18.60;45.00;;;;;;4991584;28;20957;-69
2023/03/19 12:48:17;;;;;;;0.77;0.70;;;18.60;45.00;;;;;;4983943;28;20476;-69
2023/03/19 12:50:48;;;;;;;0.87;0.87;;;18.60;45.00;;;;;;4984729;28;20904;-68
2023/03/19 12:53:43;;;;;;;1.20;1.10;;;18.60;45.00;;;;;;4994028;28;20551;-69
2023/03/19 12:56:30;;;;;;;0.80;0.80;;;18.60;45.00;;;;;;4990503;28;20496;-69
2023/03/19 12:59:00;;;;;;;0.83;0.73;;;18.60;45.00;;;;;;4986609;28;20465;-69